^^
Meteo Knjazevac Station Historical Data
Daily Summary for July 29, 2021 Units:  Both    English   Metric
Daily Weekly Monthly Yearly Custom
  High: Low: Average:
Temperature: 61 °F /  16.1 °C 53.8 °F /  12.1 °C 57.5 °F /  14.2 °C
Dew Point: 59.2 °F /  15.1 °C 51.4 °F /  10.8 °C 54.1 °F /  12.3 °C
Humidity: 95% 80% 89%
Wind Speed: 10mph /  16.1km/h - 4.6mph /  7.4km/h
Wind Gust: 20mph /  32.2km/h - -
Wind- - SSW
Pressure: 30.29 in /  1025.6 hPa 30.20 in /  1022.6 hPa -
Precipitation: 0.00 in /  0 mm    
Historical Graphs
 
 
Tabular Data for July 29, 2021
Time Temperature Dew Point Pressure Wind Wind Speed Wind Gust Humidity Rainfall Rate (Hourly) solar Conditions
00:00 61 °F /  16.1 °C 58.9 °F /  14.9 °C 30.20in /  1022.6hPa North 1mph /  1.6km/h 3mph /  4.8km/h 93% 0.00in /  0mm 0 W/m2
00:10 61 °F /  16.1 °C 59.2 °F /  15.1 °C 30.20in /  1022.6hPa Calm   3mph /  4.8km/h 94% 0.00in /  0mm 0 W/m2
00:20 61 °F /  16.1 °C 59.2 °F /  15.1 °C 30.20in /  1022.6hPa Calm   2mph /  3.2km/h 94% 0.00in /  0mm 0 W/m2
00:30 61 °F /  16.1 °C 59.2 °F /  15.1 °C 30.20in /  1022.6hPa NE 2mph /  3.2km/h 4mph /  6.4km/h 94% 0.00in /  0mm 0 W/m2
00:40 61 °F /  16.1 °C 59.2 °F /  15.1 °C 30.20in /  1022.6hPa NNE 2mph /  3.2km/h 4mph /  6.4km/h 94% 0.00in /  0mm 0 W/m2
00:50 60.8 °F /  16 °C 59.1 °F /  15.1 °C 30.20in /  1022.6hPa NNE 1mph /  1.6km/h 4mph /  6.4km/h 94% 0.00in /  0mm 0 W/m2
01:00 60.8 °F /  16 °C 59.1 °F /  15.1 °C 30.20in /  1022.6hPa NNE 1mph /  1.6km/h 4mph /  6.4km/h 94% 0.00in /  0mm 0 W/m2
01:10 60.8 °F /  16 °C 59.1 °F /  15.1 °C 30.20in /  1022.6hPa NNW 1mph /  1.6km/h 3mph /  4.8km/h 94% 0.00in /  0mm 0 W/m2
01:20 60.6 °F /  15.9 °C 58.9 °F /  14.9 °C 30.20in /  1022.6hPa NW 1mph /  1.6km/h 3mph /  4.8km/h 94% 0.00in /  0mm 0 W/m2
01:30 60.6 °F /  15.9 °C 58.9 °F /  14.9 °C 30.20in /  1022.6hPa Calm   2mph /  3.2km/h 94% 0.00in /  0mm 0 W/m2
01:40 60.4 °F /  15.8 °C 59 °F /  15 °C 30.20in /  1022.6hPa Calm   1mph /  1.6km/h 95% 0.00in /  0mm 0 W/m2
01:50 60.4 °F /  15.8 °C 59 °F /  15 °C 30.20in /  1022.6hPa Calm   1mph /  1.6km/h 95% 0.00in /  0mm 0 W/m2
02:00 60.4 °F /  15.8 °C 59 °F /  15 °C 30.21in /  1022.9hPa Calm   2mph /  3.2km/h 95% 0.00in /  0mm 0 W/m2
02:10 60.4 °F /  15.8 °C 59 °F /  15 °C 30.21in /  1022.9hPa NNE 1mph /  1.6km/h 3mph /  4.8km/h 95% 0.00in /  0mm 0 W/m2
02:20 60.3 °F /  15.7 °C 58.8 °F /  14.9 °C 30.21in /  1022.9hPa NNE 3mph /  4.8km/h 4mph /  6.4km/h 95% 0.00in /  0mm 0 W/m2
02:30 60.3 °F /  15.7 °C 58.5 °F /  14.7 °C 30.21in /  1022.9hPa NNE 1mph /  1.6km/h 4mph /  6.4km/h 94% 0.00in /  0mm 0 W/m2
02:40 60.1 °F /  15.6 °C 58.3 °F /  14.6 °C 30.21in /  1022.9hPa NNE 2mph /  3.2km/h 5mph /  8km/h 94% 0.00in /  0mm 0 W/m2
02:50 59.9 °F /  15.5 °C 58.2 °F /  14.6 °C 30.21in /  1022.9hPa Calm   4mph /  6.4km/h 94% 0.00in /  0mm 0 W/m2
03:00 59.7 °F /  15.4 °C 58.3 °F /  14.6 °C 30.20in /  1022.6hPa NNE 1mph /  1.6km/h 3mph /  4.8km/h 95% 0.00in /  0mm 0 W/m2
03:10 59.7 °F /  15.4 °C 58.3 °F /  14.6 °C 30.20in /  1022.6hPa Calm   5mph /  8km/h 95% 0.00in /  0mm 0 W/m2
03:20 59.5 °F /  15.3 °C 58.1 °F /  14.5 °C 30.20in /  1022.6hPa Calm   2mph /  3.2km/h 95% 0.00in /  0mm 0 W/m2
03:30 59.5 °F /  15.3 °C 58.1 °F /  14.5 °C 30.20in /  1022.6hPa North 2mph /  3.2km/h 6mph /  9.7km/h 95% 0.00in /  0mm 0 W/m2
03:40 59.5 °F /  15.3 °C 57.8 °F /  14.3 °C 30.20in /  1022.6hPa North 3mph /  4.8km/h 7mph /  11.3km/h 94% 0.00in /  0mm 0 W/m2
03:50 59.4 °F /  15.2 °C 57.6 °F /  14.2 °C 30.20in /  1022.6hPa North 2mph /  3.2km/h 8mph /  12.9km/h 94% 0.00in /  0mm 0 W/m2
04:00 59.4 °F /  15.2 °C 57.3 °F /  14.1 °C 30.20in /  1022.6hPa North 5mph /  8km/h 12mph /  19.3km/h 93% 0.00in /  0mm 0 W/m2
04:10 59.1 °F /  15.1 °C 57.1 °F /  13.9 °C 30.21in /  1022.9hPa North 5mph /  8km/h 10mph /  16.1km/h 93% 0.00in /  0mm 0 W/m2
04:20 59 °F /  15 °C 56.4 °F /  13.6 °C 30.21in /  1022.9hPa North 5mph /  8km/h 10mph /  16.1km/h 91% 0.00in /  0mm 0 W/m2
04:30 58.9 °F /  14.9 °C 56.3 °F /  13.5 °C 30.21in /  1022.9hPa North 5mph /  8km/h 10mph /  16.1km/h 91% 0.00in /  0mm 0 W/m2
04:40 58.8 °F /  14.9 °C 55.8 °F /  13.2 °C 30.21in /  1022.9hPa North 2mph /  3.2km/h 10mph /  16.1km/h 90% 0.00in /  0mm 0 W/m2
04:50 58.6 °F /  14.8 °C 55.7 °F /  13.2 °C 30.21in /  1022.9hPa North 6mph /  9.7km/h 12mph /  19.3km/h 90% 0.00in /  0mm 0 W/m2
05:00 58.3 °F /  14.6 °C 55.4 °F /  13 °C 30.21in /  1022.9hPa North 6mph /  9.7km/h 12mph /  19.3km/h 90% 0.00in /  0mm 0 W/m2
05:10 58.1 °F /  14.5 °C 55.2 °F /  12.9 °C 30.21in /  1022.9hPa North 6mph /  9.7km/h 11mph /  17.7km/h 90% 0.00in /  0mm 0 W/m2
05:20 57.9 °F /  14.4 °C 54.9 °F /  12.7 °C 30.21in /  1022.9hPa North 7mph /  11.3km/h 14mph /  22.5km/h 90% 0.00in /  0mm 0 W/m2
05:30 57.6 °F /  14.2 °C 54.7 °F /  12.6 °C 30.22in /  1023.2hPa North 5mph /  8km/h 12mph /  19.3km/h 90% 0.00in /  0mm 0 W/m2
05:40 57.4 °F /  14.1 °C 54.5 °F /  12.5 °C 30.22in /  1023.2hPa North 7mph /  11.3km/h 13mph /  20.9km/h 90% 0.00in /  0mm 0 W/m2
05:50 57 °F /  13.9 °C 54.1 °F /  12.3 °C 30.22in /  1023.2hPa North 5mph /  8km/h 12mph /  19.3km/h 90% 0.00in /  0mm 0 W/m2
06:00 56.8 °F /  13.8 °C 53.9 °F /  12.2 °C 30.22in /  1023.2hPa North 5mph /  8km/h 12mph /  19.3km/h 90% 0.00in /  0mm 0 W/m2
06:10 56.7 °F /  13.7 °C 53.8 °F /  12.1 °C 30.22in /  1023.2hPa NNW 5mph /  8km/h 11mph /  17.7km/h 90% 0.00in /  0mm 0 W/m2
06:20 56.5 °F /  13.6 °C 53.6 °F /  12 °C 30.22in /  1023.2hPa North 5mph /  8km/h 10mph /  16.1km/h 90% 0.00in /  0mm 0 W/m2
06:30 56.3 °F /  13.5 °C 53.7 °F /  12.1 °C 30.23in /  1023.6hPa NNW 3mph /  4.8km/h 11mph /  17.7km/h 91% 0.00in /  0mm 0 W/m2
06:40 56.1 °F /  13.4 °C 53.5 °F /  11.9 °C 30.23in /  1023.6hPa North 1mph /  1.6km/h 7mph /  11.3km/h 91% 0.00in /  0mm 2 W/m2
06:50 55.8 °F /  13.2 °C 53.2 °F /  11.8 °C 30.24in /  1023.9hPa NNW 2mph /  3.2km/h 7mph /  11.3km/h 91% 0.00in /  0mm 3 W/m2
07:00 55.8 °F /  13.2 °C 53.2 °F /  11.8 °C 30.24in /  1023.9hPa NNW 3mph /  4.8km/h 7mph /  11.3km/h 91% 0.00in /  0mm 5 W/m2
07:10 55.6 °F /  13.1 °C 53 °F /  11.7 °C 30.24in /  1023.9hPa North 5mph /  8km/h 9mph /  14.5km/h 91% 0.00in /  0mm 7 W/m2
07:20 55.6 °F /  13.1 °C 53 °F /  11.7 °C 30.24in /  1023.9hPa North 5mph /  8km/h 9mph /  14.5km/h 91% 0.00in /  0mm 9 W/m2
07:30 55.4 °F /  13 °C 52.8 °F /  11.6 °C 30.25in /  1024.3hPa North 2mph /  3.2km/h 12mph /  19.3km/h 91% 0.00in /  0mm 12 W/m2
07:40 55.4 °F /  13 °C 52.8 °F /  11.6 °C 30.25in /  1024.3hPa North 2mph /  3.2km/h 8mph /  12.9km/h 91% 0.00in /  0mm 13 W/m2
07:50 55.4 °F /  13 °C 52.8 °F /  11.6 °C 30.25in /  1024.3hPa NNW 3mph /  4.8km/h 7mph /  11.3km/h 91% 0.00in /  0mm 14 W/m2
08:00 55.2 °F /  12.9 °C 52.6 °F /  11.4 °C 30.25in /  1024.3hPa NNW 3mph /  4.8km/h 6mph /  9.7km/h 91% 0.00in /  0mm 16 W/m2
08:10 55.2 °F /  12.9 °C 53.2 °F /  11.8 °C 30.26in /  1024.6hPa NW 3mph /  4.8km/h 7mph /  11.3km/h 93% 0.00in /  0mm 45 W/m2
08:20 55.2 °F /  12.9 °C 53.2 °F /  11.8 °C 30.25in /  1024.3hPa NNW 5mph /  8km/h 8mph /  12.9km/h 93% 0.00in /  0mm 101 W/m2
08:30 55.6 °F /  13.1 °C 53 °F /  11.7 °C 30.26in /  1024.6hPa NNW 2mph /  3.2km/h 6mph /  9.7km/h 91% 0.00in /  0mm 93 W/m2
08:40 55.8 °F /  13.2 °C 53.2 °F /  11.8 °C 30.26in /  1024.6hPa NNW 2mph /  3.2km/h 5mph /  8km/h 91% 0.00in /  0mm 89 W/m2
08:50 56 °F /  13.3 °C 53.4 °F /  11.9 °C 30.26in /  1024.6hPa North 2mph /  3.2km/h 9mph /  14.5km/h 91% 0.00in /  0mm 122 W/m2
09:00 56.3 °F /  13.5 °C 53.4 °F /  11.9 °C 30.26in /  1024.6hPa NNW 3mph /  4.8km/h 7mph /  11.3km/h 90% 0.00in /  0mm 100 W/m2
09:10 56.3 °F /  13.5 °C 53.4 °F /  11.9 °C 30.26in /  1024.6hPa North 3mph /  4.8km/h 10mph /  16.1km/h 90% 0.00in /  0mm 98 W/m2
09:20 56.4 °F /  13.6 °C 53.5 °F /  11.9 °C 30.26in /  1024.6hPa NNW 3mph /  4.8km/h 8mph /  12.9km/h 90% 0.00in /  0mm 93 W/m2
09:30 56.5 °F /  13.6 °C 53.3 °F /  11.8 °C 30.26in /  1024.6hPa NNW 5mph /  8km/h 10mph /  16.1km/h 89% 0.00in /  0mm 123 W/m2
09:40 56.8 °F /  13.8 °C 53.6 °F /  12 °C 30.27in /  1024.9hPa North 3mph /  4.8km/h 8mph /  12.9km/h 89% 0.00in /  0mm 213 W/m2
09:50 57.3 °F /  14.1 °C 53.8 °F /  12.1 °C 30.26in /  1024.6hPa North 3mph /  4.8km/h 10mph /  16.1km/h 88% 0.00in /  0mm 258 W/m2
10:00 57.8 °F /  14.3 °C 54.3 °F /  12.4 °C 30.27in /  1024.9hPa North 3mph /  4.8km/h 12mph /  19.3km/h 88% 0.00in /  0mm 321 W/m2
10:10 58.5 °F /  14.7 °C 54.3 °F /  12.4 °C 30.27in /  1024.9hPa North 5mph /  8km/h 15mph /  24.1km/h 86% 0.00in /  0mm 350 W/m2
10:20 59.2 °F /  15.1 °C 54.7 °F /  12.6 °C 30.27in /  1024.9hPa North 8mph /  12.9km/h 15mph /  24.1km/h 85% 0.00in /  0mm 496 W/m2
10:30 60.1 °F /  15.6 °C 55.2 °F /  12.9 °C 30.27in /  1024.9hPa North 7mph /  11.3km/h 14mph /  22.5km/h 84% 0.00in /  0mm 594 W/m2
10:40 60.1 °F /  15.6 °C 54.9 °F /  12.7 °C 30.27in /  1024.9hPa North 5mph /  8km/h 17mph /  27.4km/h 83% 0.00in /  0mm 217 W/m2
10:50 59.5 °F /  15.3 °C 54.4 °F /  12.4 °C 30.27in /  1024.9hPa North 7mph /  11.3km/h 15mph /  24.1km/h 83% 0.00in /  0mm 209 W/m2
11:00 59.3 °F /  15.2 °C 54.1 °F /  12.3 °C 30.27in /  1024.9hPa North 7mph /  11.3km/h 14mph /  22.5km/h 83% 0.00in /  0mm 263 W/m2
11:10 59.4 °F /  15.2 °C 54.2 °F /  12.3 °C 30.27in /  1024.9hPa North 3mph /  4.8km/h 13mph /  20.9km/h 83% 0.00in /  0mm 212 W/m2
11:20 59 °F /  15 °C 53.8 °F /  12.1 °C 30.27in /  1024.9hPa North 3mph /  4.8km/h 14mph /  22.5km/h 83% 0.00in /  0mm 214 W/m2
11:30 59 °F /  15 °C 54.2 °F /  12.3 °C 30.27in /  1024.9hPa North 3mph /  4.8km/h 13mph /  20.9km/h 84% 0.00in /  0mm 229 W/m2
11:40 59 °F /  15 °C 54.2 °F /  12.3 °C 30.27in /  1024.9hPa North 5mph /  8km/h 13mph /  20.9km/h 84% 0.00in /  0mm 297 W/m2
11:50 59.5 °F /  15.3 °C 54.7 °F /  12.6 °C 30.27in /  1024.9hPa North 5mph /  8km/h 13mph /  20.9km/h 84% 0.00in /  0mm 368 W/m2
12:00 59.9 °F /  15.5 °C 54.7 °F /  12.6 °C 30.27in /  1024.9hPa North 6mph /  9.7km/h 13mph /  20.9km/h 83% 0.00in /  0mm 386 W/m2
12:10 60.1 °F /  15.6 °C 54.6 °F /  12.6 °C 30.27in /  1024.9hPa North 7mph /  11.3km/h 12mph /  19.3km/h 82% 0.00in /  0mm 258 W/m2
12:20 59.9 °F /  15.5 °C 54.1 °F /  12.3 °C 30.27in /  1024.9hPa North 6mph /  9.7km/h 13mph /  20.9km/h 81% 0.00in /  0mm 322 W/m2
12:30 59.7 °F /  15.4 °C 53.9 °F /  12.2 °C 30.27in /  1024.9hPa North 7mph /  11.3km/h 14mph /  22.5km/h 81% 0.00in /  0mm 257 W/m2
12:40 59.4 °F /  15.2 °C 54.2 °F /  12.3 °C 30.27in /  1024.9hPa North 5mph /  8km/h 15mph /  24.1km/h 83% 0.00in /  0mm 336 W/m2
12:50 59.4 °F /  15.2 °C 54.2 °F /  12.3 °C 30.27in /  1024.9hPa North 7mph /  11.3km/h 14mph /  22.5km/h 83% 0.00in /  0mm 274 W/m2
13:00 59.4 °F /  15.2 °C 54.2 °F /  12.3 °C 30.27in /  1024.9hPa North 6mph /  9.7km/h 20mph /  32.2km/h 83% 0.00in /  0mm 269 W/m2
13:10 59.4 °F /  15.2 °C 54.2 °F /  12.3 °C 30.27in /  1024.9hPa North 8mph /  12.9km/h 14mph /  22.5km/h 83% 0.00in /  0mm 299 W/m2
13:20 59.4 °F /  15.2 °C 54.2 °F /  12.3 °C 30.26in /  1024.6hPa North 5mph /  8km/h 14mph /  22.5km/h 83% 0.00in /  0mm 239 W/m2
13:30 59.2 °F /  15.1 °C 54 °F /  12.2 °C 30.26in /  1024.6hPa North 7mph /  11.3km/h 17mph /  27.4km/h 83% 0.00in /  0mm 266 W/m2
13:40 59.4 °F /  15.2 °C 54.2 °F /  12.3 °C 30.26in /  1024.6hPa North 6mph /  9.7km/h 16mph /  25.7km/h 83% 0.00in /  0mm 259 W/m2
13:50 59.4 °F /  15.2 °C 54.2 °F /  12.3 °C 30.26in /  1024.6hPa North 6mph /  9.7km/h 16mph /  25.7km/h 83% 0.00in /  0mm 300 W/m2
14:00 59.4 °F /  15.2 °C 54.2 °F /  12.3 °C 30.26in /  1024.6hPa North 7mph /  11.3km/h 17mph /  27.4km/h 83% 0.00in /  0mm 319 W/m2
14:10 59.4 °F /  15.2 °C 53.9 °F /  12.2 °C 30.26in /  1024.6hPa North 6mph /  9.7km/h 17mph /  27.4km/h 82% 0.00in /  0mm 323 W/m2
14:20 59.5 °F /  15.3 °C 53.7 °F /  12.1 °C 30.26in /  1024.6hPa North 8mph /  12.9km/h 17mph /  27.4km/h 81% 0.00in /  0mm 349 W/m2
14:30 59.7 °F /  15.4 °C 53.9 °F /  12.2 °C 30.26in /  1024.6hPa North 6mph /  9.7km/h 16mph /  25.7km/h 81% 0.00in /  0mm 293 W/m2
14:40 59.5 °F /  15.3 °C 53.7 °F /  12.1 °C 30.26in /  1024.6hPa North 6mph /  9.7km/h 18mph /  29km/h 81% 0.00in /  0mm 470 W/m2
14:50 59.4 °F /  15.2 °C 53.6 °F /  12 °C 30.25in /  1024.3hPa North 7mph /  11.3km/h 17mph /  27.4km/h 81% 0.00in /  0mm 357 W/m2
15:00 59.4 °F /  15.2 °C 53.5 °F /  11.9 °C 30.25in /  1024.3hPa North 8mph /  12.9km/h 14mph /  22.5km/h 81% 0.00in /  0mm 487 W/m2
15:10 59.5 °F /  15.3 °C 53.4 °F /  11.9 °C 30.25in /  1024.3hPa North 9mph /  14.5km/h 15mph /  24.1km/h 80% 0.00in /  0mm 464 W/m2
15:20 59.5 °F /  15.3 °C 53.4 °F /  11.9 °C 30.25in /  1024.3hPa North 7mph /  11.3km/h 16mph /  25.7km/h 80% 0.00in /  0mm 422 W/m2
15:30 59.5 °F /  15.3 °C 53.4 °F /  11.9 °C 30.25in /  1024.3hPa North 8mph /  12.9km/h 18mph /  29km/h 80% 0.00in /  0mm 413 W/m2
15:40 59.4 °F /  15.2 °C 53.2 °F /  11.8 °C 30.25in /  1024.3hPa North 10mph /  16.1km/h 20mph /  32.2km/h 80% 0.00in /  0mm 387 W/m2
15:50 59.4 °F /  15.2 °C 53.6 °F /  12 °C 30.25in /  1024.3hPa North 7mph /  11.3km/h 16mph /  25.7km/h 81% 0.00in /  0mm 359 W/m2
16:00 59.1 °F /  15.1 °C 52.9 °F /  11.6 °C 30.25in /  1024.3hPa North 8mph /  12.9km/h 17mph /  27.4km/h 80% 0.00in /  0mm 154 W/m2
16:10 58.6 °F /  14.8 °C 52.8 °F /  11.6 °C 30.25in /  1024.3hPa North 7mph /  11.3km/h 17mph /  27.4km/h 81% 0.00in /  0mm 237 W/m2
16:20 58.5 °F /  14.7 °C 53.3 °F /  11.8 °C 30.25in /  1024.3hPa North 7mph /  11.3km/h 17mph /  27.4km/h 83% 0.00in /  0mm 190 W/m2
16:30 58.1 °F /  14.5 °C 53 °F /  11.7 °C 30.25in /  1024.3hPa North 8mph /  12.9km/h 20mph /  32.2km/h 83% 0.00in /  0mm 137 W/m2
16:40 57.7 °F /  14.3 °C 52.9 °F /  11.6 °C 30.25in /  1024.3hPa North 8mph /  12.9km/h 16mph /  25.7km/h 84% 0.00in /  0mm 129 W/m2
16:50 57.6 °F /  14.2 °C 52.8 °F /  11.6 °C 30.25in /  1024.3hPa North 9mph /  14.5km/h 15mph /  24.1km/h 84% 0.00in /  0mm 84 W/m2
17:00 57.1 °F /  13.9 °C 52.3 °F /  11.3 °C 30.25in /  1024.3hPa North 7mph /  11.3km/h 15mph /  24.1km/h 84% 0.00in /  0mm 68 W/m2
17:10 56.8 °F /  13.8 °C 52.4 °F /  11.3 °C 30.25in /  1024.3hPa North 7mph /  11.3km/h 18mph /  29km/h 85% 0.00in /  0mm 48 W/m2
17:20 56.6 °F /  13.7 °C 52.1 °F /  11.2 °C 30.26in /  1024.6hPa North 6mph /  9.7km/h 15mph /  24.1km/h 85% 0.00in /  0mm 35 W/m2
17:30 56.3 °F /  13.5 °C 51.8 °F /  11 °C 30.26in /  1024.6hPa North 6mph /  9.7km/h 15mph /  24.1km/h 85% 0.00in /  0mm 26 W/m2
17:40 55.9 °F /  13.3 °C 51.8 °F /  11 °C 30.26in /  1024.6hPa North 5mph /  8km/h 16mph /  25.7km/h 86% 0.00in /  0mm 25 W/m2
17:50 55.8 °F /  13.2 °C 51.6 °F /  10.9 °C 30.26in /  1024.6hPa North 7mph /  11.3km/h 17mph /  27.4km/h 86% 0.00in /  0mm 20 W/m2
18:00 55.5 °F /  13.1 °C 51.4 °F /  10.8 °C 30.26in /  1024.6hPa North 5mph /  8km/h 14mph /  22.5km/h 86% 0.00in /  0mm 10 W/m2
18:10 55.2 °F /  12.9 °C 51.7 °F /  10.9 °C 30.26in /  1024.6hPa North 5mph /  8km/h 14mph /  22.5km/h 88% 0.00in /  0mm 5 W/m2
18:20 55 °F /  12.8 °C 51.5 °F /  10.8 °C 30.26in /  1024.6hPa North 7mph /  11.3km/h 14mph /  22.5km/h 88% 0.00in /  0mm 0 W/m2
18:30 54.9 °F /  12.7 °C 51.4 °F /  10.8 °C 30.26in /  1024.6hPa North 6mph /  9.7km/h 13mph /  20.9km/h 88% 0.00in /  0mm 0 W/m2
18:40 54.7 °F /  12.6 °C 51.5 °F /  10.8 °C 30.26in /  1024.6hPa North 7mph /  11.3km/h 13mph /  20.9km/h 89% 0.00in /  0mm 0 W/m2
18:50 54.8 °F /  12.7 °C 51.6 °F /  10.9 °C 30.26in /  1024.6hPa North 6mph /  9.7km/h 13mph /  20.9km/h 89% 0.00in /  0mm 0 W/m2
19:00 54.9 °F /  12.7 °C 51.7 °F /  10.9 °C 30.26in /  1024.6hPa North 6mph /  9.7km/h 13mph /  20.9km/h 89% 0.00in /  0mm 0 W/m2
19:10 54.9 °F /  12.7 °C 51.7 °F /  10.9 °C 30.26in /  1024.6hPa North 7mph /  11.3km/h 14mph /  22.5km/h 89% 0.00in /  0mm 0 W/m2
19:20 54.9 °F /  12.7 °C 51.7 °F /  10.9 °C 30.27in /  1024.9hPa North 6mph /  9.7km/h 12mph /  19.3km/h 89% 0.00in /  0mm 0 W/m2
19:30 54.9 °F /  12.7 °C 51.7 °F /  10.9 °C 30.27in /  1024.9hPa North 6mph /  9.7km/h 13mph /  20.9km/h 89% 0.00in /  0mm 0 W/m2
19:40 54.9 °F /  12.7 °C 51.7 °F /  10.9 °C 30.27in /  1024.9hPa North 3mph /  4.8km/h 12mph /  19.3km/h 89% 0.00in /  0mm 0 W/m2
19:50 54.9 °F /  12.7 °C 51.7 °F /  10.9 °C 30.27in /  1024.9hPa North 5mph /  8km/h 11mph /  17.7km/h 89% 0.00in /  0mm 0 W/m2
20:00 54.9 °F /  12.7 °C 51.7 °F /  10.9 °C 30.27in /  1024.9hPa North 5mph /  8km/h 12mph /  19.3km/h 89% 0.00in /  0mm 0 W/m2
20:10 54.9 °F /  12.7 °C 51.7 °F /  10.9 °C 30.28in /  1025.3hPa North 5mph /  8km/h 9mph /  14.5km/h 89% 0.00in /  0mm 0 W/m2
20:20 54.9 °F /  12.7 °C 51.7 °F /  10.9 °C 30.28in /  1025.3hPa North 5mph /  8km/h 11mph /  17.7km/h 89% 0.00in /  0mm 0 W/m2
20:30 54.9 °F /  12.7 °C 51.7 °F /  10.9 °C 30.28in /  1025.3hPa North 2mph /  3.2km/h 12mph /  19.3km/h 89% 0.00in /  0mm 0 W/m2
20:40 54.9 °F /  12.7 °C 51.7 °F /  10.9 °C 30.28in /  1025.3hPa North 5mph /  8km/h 12mph /  19.3km/h 89% 0.00in /  0mm 0 W/m2
20:50 55 °F /  12.8 °C 51.9 °F /  11.1 °C 30.28in /  1025.3hPa North 7mph /  11.3km/h 12mph /  19.3km/h 89% 0.00in /  0mm 0 W/m2
21:00 55 °F /  12.8 °C 51.9 °F /  11.1 °C 30.28in /  1025.3hPa North 6mph /  9.7km/h 13mph /  20.9km/h 89% 0.00in /  0mm 0 W/m2
21:10 55 °F /  12.8 °C 51.9 °F /  11.1 °C 30.28in /  1025.3hPa North 7mph /  11.3km/h 12mph /  19.3km/h 89% 0.00in /  0mm 0 W/m2
21:20 54.9 °F /  12.7 °C 51.7 °F /  10.9 °C 30.28in /  1025.3hPa North 5mph /  8km/h 9mph /  14.5km/h 89% 0.00in /  0mm 0 W/m2
21:30 54.9 °F /  12.7 °C 51.7 °F /  10.9 °C 30.28in /  1025.3hPa North 5mph /  8km/h 10mph /  16.1km/h 89% 0.00in /  0mm 0 W/m2
21:40 54.7 °F /  12.6 °C 51.8 °F /  11 °C 30.28in /  1025.3hPa North 5mph /  8km/h 9mph /  14.5km/h 90% 0.00in /  0mm 0 W/m2
21:50 54.7 °F /  12.6 °C 51.8 °F /  11 °C 30.28in /  1025.3hPa North 7mph /  11.3km/h 10mph /  16.1km/h 90% 0.00in /  0mm 0 W/m2
22:00 54.5 °F /  12.5 °C 51.6 °F /  10.9 °C 30.28in /  1025.3hPa North 5mph /  8km/h 13mph /  20.9km/h 90% 0.00in /  0mm 0 W/m2
22:10 54.3 °F /  12.4 °C 51.4 °F /  10.8 °C 30.28in /  1025.3hPa North 5mph /  8km/h 12mph /  19.3km/h 90% 0.00in /  0mm 0 W/m2
22:20 54.3 °F /  12.4 °C 51.7 °F /  10.9 °C 30.28in /  1025.3hPa North 7mph /  11.3km/h 10mph /  16.1km/h 91% 0.00in /  0mm 0 W/m2
22:30 54.1 °F /  12.3 °C 51.6 °F /  10.9 °C 30.28in /  1025.3hPa North 5mph /  8km/h 10mph /  16.1km/h 91% 0.00in /  0mm 0 W/m2
22:40 54 °F /  12.2 °C 51.4 °F /  10.8 °C 30.28in /  1025.3hPa North 3mph /  4.8km/h 10mph /  16.1km/h 91% 0.00in /  0mm 0 W/m2
22:50 54 °F /  12.2 °C 51.4 °F /  10.8 °C 30.28in /  1025.3hPa North 5mph /  8km/h 11mph /  17.7km/h 91% 0.00in /  0mm 0 W/m2
23:00 53.8 °F /  12.1 °C 51.8 °F /  11 °C 30.28in /  1025.3hPa North 5mph /  8km/h 10mph /  16.1km/h 93% 0.00in /  0mm 0 W/m2
23:10 53.8 °F /  12.1 °C 51.8 °F /  11 °C 30.29in /  1025.6hPa North 5mph /  8km/h 9mph /  14.5km/h 93% 0.00in /  0mm 0 W/m2
23:20 53.8 °F /  12.1 °C 51.8 °F /  11 °C 30.29in /  1025.6hPa North 3mph /  4.8km/h 9mph /  14.5km/h 93% 0.00in /  0mm 0 W/m2
23:30 53.8 °F /  12.1 °C 51.8 °F /  11 °C 30.29in /  1025.6hPa North 5mph /  8km/h 9mph /  14.5km/h 93% 0.00in /  0mm 0 W/m2
23:40 53.8 °F /  12.1 °C 51.8 °F /  11 °C 30.29in /  1025.6hPa North 3mph /  4.8km/h 13mph /  20.9km/h 93% 0.00in /  0mm 0 W/m2
23:50 54 °F /  12.2 °C 52 °F /  11.1 °C 30.29in /  1025.6hPa North 5mph /  8km/h 9mph /  14.5km/h 93% 0.00in /  0mm 0 W/m2
Knjazevac, Serbia
Compliments of Weather Underground - 2 mb